Latest Coastal Weather Observations for Rosslyn Bay Harbour

IDQ60701

Issued at 5:02 pm EST Friday 20 October 2017 (issued every 10 minutes, with the page automatically refreshed every 10 minutes)

About coastal observations | Map of coastal stations | Coastal observations for QLD | Marine services | Other Formats
Station Details ID: 033208 Name: ROSSLYN BAY NTC AWS Lat: -23.16 Lon: 150.79 Height: 0.0 m
Data from the previous 72 hours. | See also: Recent months for locations in Queensland
Date/Time
EST
Temp
°C
Wind Pressure Rain since
9am
mm
Weather Cloud Vis
km
Sea
Height
m
Swell
Dir  Spd
kts
Gust
kts
hPa Trend Height
m
Period
s
Dir
20/05:00pm 24.3 E 4 9 1016.4 - - - - - - - - -
20/04:30pm 24.3 ESE 2 9 1016.5 - - - - - - - - -
20/04:00pm 24.6 E 3 10 1016.6 - - - - - - - - -
20/03:30pm 24.7 SSW 3 7 1016.7 - - - - - - - - -
20/03:00pm 24.4 W 3 8 1016.7 - - - - - - - - -
20/02:30pm 24.6 SSW 4 11 1017.0 - - - - - - - - -
20/02:00pm 24.5 SSW 4 8 1017.3 - - - - - - - - -
20/01:30pm 24.4 SE 2 7 1017.7 - - - - - - - - -
20/01:00pm 24.4 S 5 9 1018.1 - - - - - - - - -
20/12:30pm 24.4 S 6 11 1018.5 - - - - - - - - -
20/12:00pm 24.4 S 5 11 1018.8 - - - - - - - - -
20/11:30am 24.1 S 8 13 1019.1 - - - - - - - - -
20/11:00am 24.1 S 6 11 1019.4 - - - - - - - - -
20/10:30am 24.0 S 6 12 1019.6 - - - - - - - - -
20/10:00am 24.1 S 6 13 1019.6 - - - - - - - - -
20/09:30am 24.3 S 5 9 1019.7 - - - - - - - - -
20/09:00am 24.3 SW 4 12 1019.7 - - - - - - - - -
20/08:30am 24.3 WSW 4 10 1019.7 - - - - - - - - -
20/08:00am 23.7 SSW 4 10 1019.6 - - - - - - - - -
20/07:30am 23.6 SSW 3 9 1019.3 - - - - - - - - -
20/07:00am 23.4 SSW 4 9 1019.2 - - - - - - - - -
20/06:30am 23.3 SSW 4 10 1019.2 - - - - - - - - -
20/06:00am 23.2 S 5 10 1018.9 - - - - - - - - -
20/05:30am 23.1 S 5 9 1018.7 - - - - - - - - -
20/05:00am 22.5 SE 3 12 1018.4 - - - - - - - - -
20/04:30am 21.9 SSW 6 16 1018.3 - - - - - - - - -
20/04:00am 23.3 S 7 12 1017.8 - - - - - - - - -
20/03:30am 23.2 S 8 13 1017.7 - - - - - - - - -
20/03:00am 23.1 S 7 14 1017.9 - - - - - - - - -
20/02:30am 23.3 S 5 12 1018.1 - - - - - - - - -
20/02:00am 23.4 SSW 6 13 1018.3 - - - - - - - - -
20/01:30am 23.6 SW 5 11 1018.6 - - - - - - - - -
20/01:00am 23.6 SSW 6 15 1018.9 - - - - - - - - -
20/12:30am 23.5 S 7 15 1019.3 - - - - - - - - -
20/12:00am 23.0 SW 5 14 1019.7 - - - - - - - - -
 
Date/Time
EST
Temp
°C
Wind Pressure Rain since
9am
mm
Weather Cloud Vis
km
Sea
Height
m
Swell
Dir  Spd
kts
Gust
kts
hPa Trend Height
m
Period
s
Dir
19/11:30pm 23.7 SSW 6 15 1020.2 - - - - - - - - -
19/11:00pm 23.8 S 7 15 1020.8 - - - - - - - - -
19/10:30pm 23.2 S 9 18 1021.4 - - - - - - - - -
19/10:00pm 23.7 S 8 15 1021.3 - - - - - - - - -
19/09:30pm 23.9 S 8 15 1021.2 - - - - - - - - -
19/09:00pm 23.8 S 7 18 1020.9 - - - - - - - - -
19/08:30pm 23.8 S 10 17 1020.9 - - - - - - - - -
19/08:00pm 23.8 S 11 19 1020.6 - - - - - - - - -
19/07:30pm 23.9 S 12 19 1020.3 - - - - - - - - -
19/07:00pm 23.9 S 11 20 1020.1 - - - - - - - - -
19/06:30pm 23.7 SSW 7 17 1020.1 - - - - - - - - -
19/06:00pm 23.8 S 13 21 1019.8 - - - - - - - - -
19/05:30pm 23.9 S 8 16 1019.7 - - - - - - - - -
19/05:00pm 23.6 S 11 17 1019.5 - - - - - - - - -
19/04:30pm 23.6 SW 6 16 1019.1 - - - - - - - - -
19/04:00pm 24.1 S 7 14 1019.1 - - - - - - - - -
19/03:30pm 22.2 SW 5 12 1019.2 - - - - - - - - -
19/03:00pm 23.0 S 9 15 1019.1 - - - - - - - - -
19/02:30pm 23.0 S 14 24 1019.1 - - - - - - - - -
19/02:00pm 22.7 SSW 7 15 1019.1 - - - - - - - - -
19/01:30pm 23.6 S 12 21 1019.4 - - - - - - - - -
19/01:00pm 23.9 S 12 19 1019.7 - - - - - - - - -
19/12:30pm 24.5 S 8 15 1019.8 - - - - - - - - -
19/12:00pm 23.4 S 14 19 1019.9 - - - - - - - - -
19/11:30am 24.4 S 10 18 1019.7 - - - - - - - - -
19/11:00am 24.5 S 9 17 1019.8 - - - - - - - - -
19/10:30am 24.4 S 9 20 1019.8 - - - - - - - - -
19/10:00am 23.9 S 12 19 1020.1 - - - - - - - - -
19/09:30am 23.5 S 13 20 1020.1 - - - - - - - - -
19/09:00am 23.1 S 12 21 1020.0 - - - - - - - - -
19/08:30am 24.0 S 14 21 1020.1 - - - - - - - - -
19/08:00am 24.1 S 10 20 1020.2 - - - - - - - - -
19/07:30am 24.2 S 11 18 1020.0 - - - - - - - - -
19/07:00am 23.8 S 11 18 1019.7 - - - - - - - - -
19/06:30am 23.9 S 13 19 1019.4 - - - - - - - - -
19/06:00am 23.9 S 12 20 1019.1 - - - - - - - - -
19/05:30am 23.9 S 14 21 1018.6 - - - - - - - - -
19/05:00am 24.0 S 9 17 1018.4 - - - - - - - - -
19/04:30am 23.9 S 12 19 1018.0 - - - - - - - - -
19/04:00am 23.9 S 9 18 1018.0 - - - - - - - - -
19/03:30am 24.0 S 8 16 1017.9 - - - - - - - - -
19/03:00am 23.9 S 10 19 1017.9 - - - - - - - - -
19/02:30am 24.1 S 6 17 1018.1 - - - - - - - - -
19/02:00am 24.2 S 8 19 1018.4 - - - - - - - - -
19/01:30am 24.1 S 6 14 1018.7 - - - - - - - - -
19/01:00am 24.2 SSW 6 17 1019.0 - - - - - - - - -
19/12:30am 24.3 S 8 17 1019.1 - - - - - - - - -
19/12:00am 24.4 S 8 17 1019.3 - - - - - - - - -
 
Date/Time
EST
Temp
°C
Wind Pressure Rain since
9am
mm
Weather Cloud Vis
km
Sea
Height
m
Swell
Dir  Spd
kts
Gust
kts
hPa Trend Height
m
Period
s
Dir
18/11:30pm 24.4 S 8 17 1019.5 - - - - - - - - -
18/11:00pm 24.5 S 7 17 1019.6 - - - - - - - - -
18/10:30pm 24.5 SSW 8 19 1019.7 - - - - - - - - -
18/10:00pm 24.6 SSW 9 20 1019.6 - - - - - - - - -
18/09:30pm 24.6 SSW 8 22 1019.3 - - - - - - - - -
18/09:00pm 24.6 SSW 7 17 1019.1 - - - - - - - - -
18/08:30pm 24.3 SSW 9 21 1018.8 - - - - - - - - -
18/08:00pm 24.6 SSW 8 22 1018.6 - - - - - - - - -
18/07:30pm 24.2 SSW 8 19 1018.2 - - - - - - - - -
18/07:00pm 24.3 SW 7 18 1017.8 - - - - - - - - -
18/06:30pm 24.5 SW 6 16 1017.4 - - - - - - - - -
18/06:00pm 24.6 SW 5 15 1017.1 - - - - - - - - -
18/05:30pm 24.5 WSW 6 16 1016.5 - - - - - - - - -
18/05:00pm 24.7 SSW 6 15 1016.2 - - - - - - - - -
18/04:30pm 25.0 SW 5 13 1015.8 - - - - - - - - -
18/04:00pm 25.1 WSW 6 16 1015.5 - - - - - - - - -
18/03:30pm 25.1 W 7 15 1015.2 - - - - - - - - -
18/03:00pm 25.2 WSW 5 14 1015.3 - - - - - - - - -
18/02:30pm 25.2 SW 6 14 1015.2 - - - - - - - - -
18/02:00pm 25.3 SSW 6 13 1015.6 - - - - - - - - -
18/01:30pm 25.0 S 8 13 1015.8 - - - - - - - - -
18/01:00pm 25.0 S 8 14 1016.0 - - - - - - - - -
18/12:30pm 24.8 S 6 13 1016.3 - - - - - - - - -
18/12:00pm 25.1 SSW 6 13 1016.6 - - - - - - - - -
18/11:30am 24.8 SW 4 12 1016.8 - - - - - - - - -
18/11:00am 24.8 WSW 5 13 1017.0 - - - - - - - - -
18/10:30am 24.6 NNW 6 16 1017.1 - - - - - - - - -
18/10:00am 24.4 WSW 4 11 1017.2 - - - - - - - - -
18/09:30am 24.0 W 5 10 1017.1 - - - - - - - - -
18/09:00am 24.0 WNW 5 15 1016.9 - - - - - - - - -
18/08:30am 23.8 ESE 3 15 1016.9 - - - - - - - - -
18/08:00am 23.1 SSE 4 12 1016.7 - - - - - - - - -
18/07:30am 24.1 SW 5 12 1016.1 - - - - - - - - -
18/07:00am 24.0 ENE 4 13 1015.6 - - - - - - - - -
18/06:30am 22.6 E 3 8 1015.5 - - - - - - - - -
18/06:00am 21.5 NE 9 14 1015.3 - - - - - - - - -
18/05:30am 23.9 SSW 4 10 1014.8 - - - - - - - - -
18/05:00am 23.0 SSW 2 5 1014.4 - - - - - - - - -
18/04:30am 22.3 ESE 1 4 1014.1 - - - - - - - - -
18/04:00am 22.1 ENE 11 15 1014.1 - - - - - - - - -
18/03:32am 22.5 SE 8 25 1013.6 - - - - - - - - -
18/03:30am 23.9 SSW 5 13 1013.5 - - - - - - - - -
18/03:00am 23.6 W 6 15 1013.3 - - - - - - - - -
18/02:30am 23.8 S 6 13 1013.3 - - - - - - - - -
18/02:00am 23.5 S 6 15 1013.5 - - - - - - - - -
18/01:30am 24.3 WSW 5 14 1013.6 - - - - - - - - -
18/01:00am 24.2 WSW 6 17 1013.9 - - - - - - - - -
18/12:30am 24.6 WSW 6 17 1013.9 - - - - - - - - -
18/12:00am 24.5 E 6 16 1014.1 - - - - - - - - -
 
Date/Time
EST
Temp
°C
Wind Pressure Rain since
9am
mm
Weather Cloud Vis
km
Sea
Height
m
Swell
Dir  Spd
kts
Gust
kts
hPa Trend Height
m
Period
s
Dir
17/11:30pm 24.7 ESE 4 10 1014.3 - - - - - - - - -
17/11:00pm 24.5 ENE 10 20 1014.6 - - - - - - - - -
17/10:30pm 24.4 E 7 17 1014.6 - - - - - - - - -
17/10:00pm 24.0 ENE 11 20 1014.5 - - - - - - - - -
17/09:30pm 24.0 ENE 13 20 1014.2 - - - - - - - - -
17/09:00pm 24.6 NE 14 20 1014.4 - - - - - - - - -
17/08:30pm 24.3 ENE 9 15 1014.1 - - - - - - - - -
17/08:00pm 23.4 ENE 8 14 1014.1 - - - - - - - - -
17/07:30pm 22.9 WSW 4 10 1013.9 - - - - - - - - -
17/07:00pm 22.7 E 10 23 1013.5 - - - - - - - - -
17/06:30pm 23.2 ESE 7 19 1012.8 - - - - - - - - -
17/06:00pm 23.6 ENE 5 18 1012.6 - - - - - - - - -
17/05:30pm 22.6 E 5 13 1012.5 - - - - - - - - -
17/05:14pm 22.6 ENE 15 26 1012.4 - - - - - - - - -

Other Formats:

Comma delimited format used in spreadsheet applications
http://www.bom.gov.au/fwo/IDQ60701/IDQ60701.95298.axf

JavaScript Object Notation format (JSON) in row-major order
http://www.bom.gov.au/fwo/IDQ60701/IDQ60701.95298.json